sensor_id;sensor_type;location;lat;lon;timestamp;temperature;humidity
24772;DHT22;12870;52.274;9.754;2024-02-14T00:00:59;8.10;99.90
24772;DHT22;12870;52.274;9.754;2024-02-14T00:03:25;8.10;99.90
24772;DHT22;12870;52.274;9.754;2024-02-14T00:05:50;8.20;99.90
24772;DHT22;12870;52.274;9.754;2024-02-14T00:08:17;8.20;99.90
24772;DHT22;12870;52.274;9.754;2024-02-14T00:10:43;8.20;99.90
24772;DHT22;12870;52.274;9.754;2024-02-14T00:13:10;8.30;99.90
24772;DHT22;12870;52.274;9.754;2024-02-14T00:15:36;8.20;99.90
24772;DHT22;12870;52.274;9.754;2024-02-14T00:18:02;8.20;99.90
24772;DHT22;12870;52.274;9.754;2024-02-14T00:20:27;8.20;99.90
24772;DHT22;12870;52.274;9.754;2024-02-14T00:22:53;8.20;99.90
24772;DHT22;12870;52.274;9.754;2024-02-14T00:25:18;8.20;99.90
24772;DHT22;12870;52.274;9.754;2024-02-14T00:27:44;8.20;99.90
24772;DHT22;12870;52.274;9.754;2024-02-14T00:30:10;8.20;99.90
24772;DHT22;12870;52.274;9.754;2024-02-14T00:32:35;8.20;99.90
24772;DHT22;12870;52.274;9.754;2024-02-14T00:35:01;8.20;99.90
24772;DHT22;12870;52.274;9.754;2024-02-14T00:37:26;8.20;99.90
24772;DHT22;12870;52.274;9.754;2024-02-14T00:39:52;8.30;99.90
24772;DHT22;12870;52.274;9.754;2024-02-14T00:42:19;8.30;99.90
24772;DHT22;12870;52.274;9.754;2024-02-14T00:44:44;8.30;99.90
24772;DHT22;12870;52.274;9.754;2024-02-14T00:47:10;8.20;99.90
24772;DHT22;12870;52.274;9.754;2024-02-14T00:49:36;8.20;99.90
24772;DHT22;12870;52.274;9.754;2024-02-14T00:52:02;8.20;99.90
24772;DHT22;12870;52.274;9.754;2024-02-14T00:54:28;8.10;99.90
24772;DHT22;12870;52.274;9.754;2024-02-14T00:56:54;8.00;99.90
24772;DHT22;12870;52.274;9.754;2024-02-14T00:59:19;8.00;99.90
24772;DHT22;12870;52.274;9.754;2024-02-14T01:01:45;8.00;99.90
24772;DHT22;12870;52.274;9.754;2024-02-14T01:04:10;7.90;99.90
24772;DHT22;12870;52.274;9.754;2024-02-14T01:06:36;7.90;99.90
24772;DHT22;12870;52.274;9.754;2024-02-14T01:09:02;7.90;99.90
24772;DHT22;12870;52.274;9.754;2024-02-14T01:11:28;7.90;99.90
24772;DHT22;12870;52.274;9.754;2024-02-14T01:13:54;7.90;99.90
24772;DHT22;12870;52.274;9.754;2024-02-14T01:16:19;7.90;99.90
24772;DHT22;12870;52.274;9.754;2024-02-14T01:18:45;7.80;99.90
24772;DHT22;12870;52.274;9.754;2024-02-14T01:21:10;7.70;99.90
24772;DHT22;12870;52.274;9.754;2024-02-14T01:23:36;7.70;99.90
24772;DHT22;12870;52.274;9.754;2024-02-14T01:26:02;7.70;99.90
24772;DHT22;12870;52.274;9.754;2024-02-14T01:28:28;7.70;99.90
24772;DHT22;12870;52.274;9.754;2024-02-14T01:30:53;7.70;99.90
24772;DHT22;12870;52.274;9.754;2024-02-14T01:33:19;7.70;99.90
24772;DHT22;12870;52.274;9.754;2024-02-14T01:35:44;7.70;99.90
24772;DHT22;12870;52.274;9.754;2024-02-14T01:38:10;7.80;99.90
24772;DHT22;12870;52.274;9.754;2024-02-14T01:40:37;7.80;99.90
24772;DHT22;12870;52.274;9.754;2024-02-14T01:43:03;7.80;99.90
24772;DHT22;12870;52.274;9.754;2024-02-14T01:45:28;7.80;99.90
24772;DHT22;12870;52.274;9.754;2024-02-14T01:47:54;7.90;99.90
24772;DHT22;12870;52.274;9.754;2024-02-14T01:50:21;7.90;99.90
24772;DHT22;12870;52.274;9.754;2024-02-14T01:52:54;7.90;99.90
24772;DHT22;12870;52.274;9.754;2024-02-14T01:55:21;8.00;99.90
24772;DHT22;12870;52.274;9.754;2024-02-14T01:57:47;8.00;99.90
24772;DHT22;12870;52.274;9.754;2024-02-14T02:00:13;8.10;99.90
24772;DHT22;12870;52.274;9.754;2024-02-14T02:02:43;8.10;99.90
24772;DHT22;12870;52.274;9.754;2024-02-14T02:05:09;8.20;99.90
24772;DHT22;12870;52.274;9.754;2024-02-14T02:07:35;8.20;99.90
24772;DHT22;12870;52.274;9.754;2024-02-14T02:10:01;8.20;99.90
24772;DHT22;12870;52.274;9.754;2024-02-14T02:12:29;8.20;99.90
24772;DHT22;12870;52.274;9.754;2024-02-14T02:14:55;8.20;99.90
24772;DHT22;12870;52.274;9.754;2024-02-14T02:17:20;8.20;99.90
24772;DHT22;12870;52.274;9.754;2024-02-14T02:19:46;8.20;99.90
24772;DHT22;12870;52.274;9.754;2024-02-14T02:22:12;8.30;99.90
24772;DHT22;12870;52.274;9.754;2024-02-14T02:24:37;8.30;99.90
24772;DHT22;12870;52.274;9.754;2024-02-14T02:27:03;8.30;99.90
24772;DHT22;12870;52.274;9.754;2024-02-14T02:29:29;8.30;99.90
24772;DHT22;12870;52.274;9.754;2024-02-14T02:31:54;8.30;99.90
24772;DHT22;12870;52.274;9.754;2024-02-14T02:34:20;8.40;99.90
24772;DHT22;12870;52.274;9.754;2024-02-14T02:36:46;8.30;99.90
24772;DHT22;12870;52.274;9.754;2024-02-14T02:39:14;8.40;99.90
24772;DHT22;12870;52.274;9.754;2024-02-14T02:41:40;8.30;99.90
24772;DHT22;12870;52.274;9.754;2024-02-14T02:44:05;8.30;99.90
24772;DHT22;12870;52.274;9.754;2024-02-14T02:46:32;8.40;99.90
24772;DHT22;12870;52.274;9.754;2024-02-14T02:48:57;8.40;99.90
24772;DHT22;12870;52.274;9.754;2024-02-14T02:51:23;8.40;99.90
24772;DHT22;12870;52.274;9.754;2024-02-14T02:53:49;8.30;99.90
24772;DHT22;12870;52.274;9.754;2024-02-14T02:56:15;8.40;99.90
24772;DHT22;12870;52.274;9.754;2024-02-14T02:58:40;8.30;99.90
24772;DHT22;12870;52.274;9.754;2024-02-14T03:01:09;8.40;99.90
24772;DHT22;12870;52.274;9.754;2024-02-14T03:03:37;8.30;99.90
24772;DHT22;12870;52.274;9.754;2024-02-14T03:06:04;8.30;99.90
24772;DHT22;12870;52.274;9.754;2024-02-14T03:08:30;8.40;99.90
24772;DHT22;12870;52.274;9.754;2024-02-14T03:11:05;8.40;99.90
24772;DHT22;12870;52.274;9.754;2024-02-14T03:13:31;8.40;99.90
24772;DHT22;12870;52.274;9.754;2024-02-14T03:15:56;8.40;99.90
24772;DHT22;12870;52.274;9.754;2024-02-14T03:18:24;8.40;99.90
24772;DHT22;12870;52.274;9.754;2024-02-14T03:20:49;8.40;99.90
24772;DHT22;12870;52.274;9.754;2024-02-14T03:23:19;8.30;99.90
24772;DHT22;12870;52.274;9.754;2024-02-14T03:25:45;8.30;99.90
24772;DHT22;12870;52.274;9.754;2024-02-14T03:28:10;8.30;99.90
24772;DHT22;12870;52.274;9.754;2024-02-14T03:30:38;8.40;99.90
24772;DHT22;12870;52.274;9.754;2024-02-14T03:33:07;8.40;99.90
24772;DHT22;12870;52.274;9.754;2024-02-14T03:35:35;8.40;99.90
24772;DHT22;12870;52.274;9.754;2024-02-14T03:38:04;8.40;99.90
24772;DHT22;12870;52.274;9.754;2024-02-14T03:40:29;8.40;99.90
24772;DHT22;12870;52.274;9.754;2024-02-14T03:42:56;8.50;99.90
24772;DHT22;12870;52.274;9.754;2024-02-14T03:45:22;8.40;99.90
24772;DHT22;12870;52.274;9.754;2024-02-14T03:47:48;8.50;99.90
24772;DHT22;12870;52.274;9.754;2024-02-14T03:50:13;8.50;99.90
24772;DHT22;12870;52.274;9.754;2024-02-14T03:52:40;8.50;99.90
24772;DHT22;12870;52.274;9.754;2024-02-14T03:55:08;8.60;99.90
24772;DHT22;12870;52.274;9.754;2024-02-14T03:57:34;8.60;99.90
24772;DHT22;12870;52.274;9.754;2024-02-14T04:00:04;8.60;99.90
24772;DHT22;12870;52.274;9.754;2024-02-14T04:02:33;8.60;99.90
24772;DHT22;12870;52.274;9.754;2024-02-14T04:04:58;8.60;99.90
24772;DHT22;12870;52.274;9.754;2024-02-14T04:07:24;8.50;99.90
24772;DHT22;12870;52.274;9.754;2024-02-14T04:09:49;8.60;99.90
24772;DHT22;12870;52.274;9.754;2024-02-14T04:12:15;8.60;99.90
24772;DHT22;12870;52.274;9.754;2024-02-14T04:14:41;8.60;99.90
24772;DHT22;12870;52.274;9.754;2024-02-14T04:17:06;8.60;99.90
24772;DHT22;12870;52.274;9.754;2024-02-14T04:19:36;8.70;99.90
24772;DHT22;12870;52.274;9.754;2024-02-14T04:22:02;8.60;99.90
24772;DHT22;12870;52.274;9.754;2024-02-14T04:24:28;8.70;99.90
24772;DHT22;12870;52.274;9.754;2024-02-14T04:26:53;8.70;99.90
24772;DHT22;12870;52.274;9.754;2024-02-14T04:29:20;8.70;99.90
24772;DHT22;12870;52.274;9.754;2024-02-14T04:31:46;8.70;99.90
24772;DHT22;12870;52.274;9.754;2024-02-14T04:34:11;8.70;99.90
24772;DHT22;12870;52.274;9.754;2024-02-14T04:36:39;8.70;99.90
24772;DHT22;12870;52.274;9.754;2024-02-14T04:39:05;8.70;99.90
24772;DHT22;12870;52.274;9.754;2024-02-14T04:41:31;8.70;99.90
24772;DHT22;12870;52.274;9.754;2024-02-14T04:43:56;8.70;99.90
24772;DHT22;12870;52.274;9.754;2024-02-14T04:46:22;8.60;99.90
24772;DHT22;12870;52.274;9.754;2024-02-14T04:48:47;8.50;99.90
24772;DHT22;12870;52.274;9.754;2024-02-14T04:51:13;8.50;99.90
24772;DHT22;12870;52.274;9.754;2024-02-14T04:53:39;8.60;99.90
24772;DHT22;12870;52.274;9.754;2024-02-14T04:56:04;8.40;99.90
24772;DHT22;12870;52.274;9.754;2024-02-14T04:58:30;8.40;99.90
24772;DHT22;12870;52.274;9.754;2024-02-14T05:00:56;8.40;99.90
24772;DHT22;12870;52.274;9.754;2024-02-14T05:03:21;8.40;99.90
24772;DHT22;12870;52.274;9.754;2024-02-14T05:05:49;8.40;99.90
24772;DHT22;12870;52.274;9.754;2024-02-14T05:08:15;8.40;99.90
24772;DHT22;12870;52.274;9.754;2024-02-14T05:10:41;8.30;99.90
24772;DHT22;12870;52.274;9.754;2024-02-14T05:13:06;8.30;99.90
24772;DHT22;12870;52.274;9.754;2024-02-14T05:15:32;8.30;99.90
24772;DHT22;12870;52.274;9.754;2024-02-14T05:18:00;8.40;99.90
24772;DHT22;12870;52.274;9.754;2024-02-14T05:20:25;8.40;99.90
24772;DHT22;12870;52.274;9.754;2024-02-14T05:22:51;8.40;99.90
24772;DHT22;12870;52.274;9.754;2024-02-14T05:25:16;8.30;99.90
24772;DHT22;12870;52.274;9.754;2024-02-14T05:27:43;8.40;99.90
24772;DHT22;12870;52.274;9.754;2024-02-14T05:30:11;8.40;99.90
24772;DHT22;12870;52.274;9.754;2024-02-14T05:32:37;8.40;99.90
24772;DHT22;12870;52.274;9.754;2024-02-14T05:35:02;8.40;99.90
24772;DHT22;12870;52.274;9.754;2024-02-14T05:37:31;8.40;99.90
24772;DHT22;12870;52.274;9.754;2024-02-14T05:39:57;8.40;99.90
24772;DHT22;12870;52.274;9.754;2024-02-14T05:42:22;8.30;99.90
24772;DHT22;12870;52.274;9.754;2024-02-14T05:44:49;8.40;99.90
24772;DHT22;12870;52.274;9.754;2024-02-14T05:47:15;8.40;99.90
24772;DHT22;12870;52.274;9.754;2024-02-14T05:49:41;8.40;99.90
24772;DHT22;12870;52.274;9.754;2024-02-14T05:52:07;8.40;99.90
24772;DHT22;12870;52.274;9.754;2024-02-14T05:54:33;8.50;99.90
24772;DHT22;12870;52.274;9.754;2024-02-14T05:56:59;8.50;99.90
24772;DHT22;12870;52.274;9.754;2024-02-14T05:59:24;8.40;99.90
24772;DHT22;12870;52.274;9.754;2024-02-14T06:01:50;8.50;99.90
24772;DHT22;12870;52.274;9.754;2024-02-14T06:04:15;8.50;99.90
24772;DHT22;12870;52.274;9.754;2024-02-14T06:06:41;8.50;99.90
24772;DHT22;12870;52.274;9.754;2024-02-14T06:09:06;8.50;99.90
24772;DHT22;12870;52.274;9.754;2024-02-14T06:11:38;8.50;99.90
24772;DHT22;12870;52.274;9.754;2024-02-14T06:14:08;8.50;99.90
24772;DHT22;12870;52.274;9.754;2024-02-14T06:16:34;8.50;99.90
24772;DHT22;12870;52.274;9.754;2024-02-14T06:19:00;8.60;99.90
24772;DHT22;12870;52.274;9.754;2024-02-14T06:21:26;8.60;99.90
24772;DHT22;12870;52.274;9.754;2024-02-14T06:23:52;8.60;99.90
24772;DHT22;12870;52.274;9.754;2024-02-14T06:26:18;8.60;99.90
24772;DHT22;12870;52.274;9.754;2024-02-14T06:28:47;8.60;99.90
24772;DHT22;12870;52.274;9.754;2024-02-14T06:31:12;8.60;99.90
24772;DHT22;12870;52.274;9.754;2024-02-14T06:33:38;8.60;99.90
24772;DHT22;12870;52.274;9.754;2024-02-14T06:36:04;8.60;99.90
24772;DHT22;12870;52.274;9.754;2024-02-14T06:38:31;8.60;99.90
24772;DHT22;12870;52.274;9.754;2024-02-14T06:40:57;8.60;99.90
24772;DHT22;12870;52.274;9.754;2024-02-14T06:43:22;8.60;99.90
24772;DHT22;12870;52.274;9.754;2024-02-14T06:45:48;8.70;99.90
24772;DHT22;12870;52.274;9.754;2024-02-14T06:48:13;8.70;99.90
24772;DHT22;12870;52.274;9.754;2024-02-14T06:50:39;8.70;99.90
24772;DHT22;12870;52.274;9.754;2024-02-14T06:53:04;8.70;99.90
24772;DHT22;12870;52.274;9.754;2024-02-14T06:55:30;8.70;99.90
24772;DHT22;12870;52.274;9.754;2024-02-14T06:57:58;8.70;99.90
24772;DHT22;12870;52.274;9.754;2024-02-14T07:00:23;8.70;99.90
24772;DHT22;12870;52.274;9.754;2024-02-14T07:02:49;8.70;99.90
24772;DHT22;12870;52.274;9.754;2024-02-14T07:05:15;8.70;99.90
24772;DHT22;12870;52.274;9.754;2024-02-14T07:07:41;8.80;99.90
24772;DHT22;12870;52.274;9.754;2024-02-14T07:10:07;8.80;99.90
24772;DHT22;12870;52.274;9.754;2024-02-14T07:12:33;8.80;99.90
24772;DHT22;12870;52.274;9.754;2024-02-14T07:14:58;8.90;99.90
24772;DHT22;12870;52.274;9.754;2024-02-14T07:17:24;8.90;99.90
24772;DHT22;12870;52.274;9.754;2024-02-14T07:19:49;8.90;99.90
24772;DHT22;12870;52.274;9.754;2024-02-14T07:22:16;8.80;99.90
24772;DHT22;12870;52.274;9.754;2024-02-14T07:24:43;8.90;99.90
24772;DHT22;12870;52.274;9.754;2024-02-14T07:27:08;9.00;99.90
24772;DHT22;12870;52.274;9.754;2024-02-14T07:29:34;9.00;99.90
24772;DHT22;12870;52.274;9.754;2024-02-14T07:32:02;8.90;99.90
24772;DHT22;12870;52.274;9.754;2024-02-14T07:34:27;8.90;99.90
24772;DHT22;12870;52.274;9.754;2024-02-14T07:36:53;8.90;99.90
24772;DHT22;12870;52.274;9.754;2024-02-14T07:39:18;9.00;99.90
24772;DHT22;12870;52.274;9.754;2024-02-14T07:41:44;9.00;99.90
24772;DHT22;12870;52.274;9.754;2024-02-14T07:44:09;9.10;99.90
24772;DHT22;12870;52.274;9.754;2024-02-14T07:46:35;9.00;99.90
24772;DHT22;12870;52.274;9.754;2024-02-14T07:49:01;9.00;99.90
24772;DHT22;12870;52.274;9.754;2024-02-14T07:51:26;9.10;99.90
24772;DHT22;12870;52.274;9.754;2024-02-14T07:53:54;9.00;99.90
24772;DHT22;12870;52.274;9.754;2024-02-14T07:56:19;9.00;99.90
24772;DHT22;12870;52.274;9.754;2024-02-14T07:58:45;8.90;99.90
24772;DHT22;12870;52.274;9.754;2024-02-14T08:01:11;8.90;99.90
24772;DHT22;12870;52.274;9.754;2024-02-14T08:03:37;8.80;99.90
24772;DHT22;12870;52.274;9.754;2024-02-14T08:06:02;8.90;99.90
24772;DHT22;12870;52.274;9.754;2024-02-14T08:08:28;8.90;99.90
24772;DHT22;12870;52.274;9.754;2024-02-14T08:10:53;8.80;99.90
24772;DHT22;12870;52.274;9.754;2024-02-14T08:13:20;8.90;99.90
24772;DHT22;12870;52.274;9.754;2024-02-14T08:15:45;8.90;99.90
24772;DHT22;12870;52.274;9.754;2024-02-14T08:18:11;8.90;99.90
24772;DHT22;12870;52.274;9.754;2024-02-14T08:20:37;8.90;99.90
24772;DHT22;12870;52.274;9.754;2024-02-14T08:23:03;9.00;99.90
24772;DHT22;12870;52.274;9.754;2024-02-14T08:25:29;9.00;99.90
24772;DHT22;12870;52.274;9.754;2024-02-14T08:27:55;9.00;99.90
24772;DHT22;12870;52.274;9.754;2024-02-14T08:30:21;9.10;99.90
24772;DHT22;12870;52.274;9.754;2024-02-14T08:32:46;9.20;99.90
24772;DHT22;12870;52.274;9.754;2024-02-14T08:35:12;9.20;99.90
24772;DHT22;12870;52.274;9.754;2024-02-14T08:37:39;9.20;99.90
24772;DHT22;12870;52.274;9.754;2024-02-14T08:40:06;9.30;99.90
24772;DHT22;12870;52.274;9.754;2024-02-14T08:42:33;9.20;99.90
24772;DHT22;12870;52.274;9.754;2024-02-14T08:44:59;9.30;99.90
24772;DHT22;12870;52.274;9.754;2024-02-14T08:47:24;9.30;99.90
24772;DHT22;12870;52.274;9.754;2024-02-14T08:49:52;9.30;99.90
24772;DHT22;12870;52.274;9.754;2024-02-14T08:52:17;9.30;99.90
24772;DHT22;12870;52.274;9.754;2024-02-14T08:54:44;9.40;99.90
24772;DHT22;12870;52.274;9.754;2024-02-14T08:57:10;9.50;99.90
24772;DHT22;12870;52.274;9.754;2024-02-14T08:59:36;9.50;99.90
24772;DHT22;12870;52.274;9.754;2024-02-14T09:02:01;9.50;99.90
24772;DHT22;12870;52.274;9.754;2024-02-14T09:04:28;9.50;99.90
24772;DHT22;12870;52.274;9.754;2024-02-14T09:06:53;9.60;99.90
24772;DHT22;12870;52.274;9.754;2024-02-14T09:09:19;9.70;99.90
24772;DHT22;12870;52.274;9.754;2024-02-14T09:11:45;9.70;99.90
24772;DHT22;12870;52.274;9.754;2024-02-14T09:14:12;9.70;99.90
24772;DHT22;12870;52.274;9.754;2024-02-14T09:16:37;9.80;99.90
24772;DHT22;12870;52.274;9.754;2024-02-14T09:19:04;9.80;99.90
24772;DHT22;12870;52.274;9.754;2024-02-14T09:21:35;9.80;99.90
24772;DHT22;12870;52.274;9.754;2024-02-14T09:24:01;9.90;99.90
24772;DHT22;12870;52.274;9.754;2024-02-14T09:26:28;10.00;99.90
24772;DHT22;12870;52.274;9.754;2024-02-14T09:28:54;10.00;99.90
24772;DHT22;12870;52.274;9.754;2024-02-14T09:31:19;10.00;99.90
24772;DHT22;12870;52.274;9.754;2024-02-14T09:33:47;10.00;99.90
24772;DHT22;12870;52.274;9.754;2024-02-14T09:36:13;10.20;99.90
24772;DHT22;12870;52.274;9.754;2024-02-14T09:38:39;10.20;99.90
24772;DHT22;12870;52.274;9.754;2024-02-14T09:41:22;10.30;99.90
24772;DHT22;12870;52.274;9.754;2024-02-14T09:43:51;10.30;99.90
24772;DHT22;12870;52.274;9.754;2024-02-14T09:46:17;10.40;99.90
24772;DHT22;12870;52.274;9.754;2024-02-14T09:48:44;10.50;99.90
24772;DHT22;12870;52.274;9.754;2024-02-14T09:51:11;10.50;99.90
24772;DHT22;12870;52.274;9.754;2024-02-14T09:53:38;10.50;99.90
24772;DHT22;12870;52.274;9.754;2024-02-14T09:56:04;10.50;99.90
24772;DHT22;12870;52.274;9.754;2024-02-14T09:58:31;10.70;99.90
24772;DHT22;12870;52.274;9.754;2024-02-14T10:00:57;10.70;99.90
24772;DHT22;12870;52.274;9.754;2024-02-14T10:03:22;10.70;99.90
24772;DHT22;12870;52.274;9.754;2024-02-14T10:05:48;10.70;99.90
24772;DHT22;12870;52.274;9.754;2024-02-14T10:08:14;10.70;99.90
24772;DHT22;12870;52.274;9.754;2024-02-14T10:10:39;10.80;99.90
24772;DHT22;12870;52.274;9.754;2024-02-14T10:13:05;10.80;99.90
24772;DHT22;12870;52.274;9.754;2024-02-14T10:15:32;10.80;99.90
24772;DHT22;12870;52.274;9.754;2024-02-14T10:17:58;10.80;99.90
24772;DHT22;12870;52.274;9.754;2024-02-14T10:20:24;10.80;99.90
24772;DHT22;12870;52.274;9.754;2024-02-14T10:22:51;10.80;99.90
24772;DHT22;12870;52.274;9.754;2024-02-14T10:25:17;10.80;99.90
24772;DHT22;12870;52.274;9.754;2024-02-14T10:27:44;10.70;99.90
24772;DHT22;12870;52.274;9.754;2024-02-14T10:30:11;10.80;99.90
24772;DHT22;12870;52.274;9.754;2024-02-14T10:32:41;10.90;99.90
24772;DHT22;12870;52.274;9.754;2024-02-14T10:35:13;10.80;99.90
24772;DHT22;12870;52.274;9.754;2024-02-14T10:37:38;10.90;99.90
24772;DHT22;12870;52.274;9.754;2024-02-14T10:40:05;11.00;99.90
24772;DHT22;12870;52.274;9.754;2024-02-14T10:42:32;11.00;99.90
24772;DHT22;12870;52.274;9.754;2024-02-14T10:44:58;11.10;99.90
24772;DHT22;12870;52.274;9.754;2024-02-14T10:47:30;11.10;99.90
24772;DHT22;12870;52.274;9.754;2024-02-14T10:50:00;11.20;99.90
24772;DHT22;12870;52.274;9.754;2024-02-14T10:52:36;11.20;99.90
24772;DHT22;12870;52.274;9.754;2024-02-14T10:55:04;11.40;99.90
24772;DHT22;12870;52.274;9.754;2024-02-14T10:57:30;11.50;99.90
24772;DHT22;12870;52.274;9.754;2024-02-14T11:00:03;11.50;99.90
24772;DHT22;12870;52.274;9.754;2024-02-14T11:02:29;11.40;99.90
24772;DHT22;12870;52.274;9.754;2024-02-14T11:04:56;11.30;99.90
24772;DHT22;12870;52.274;9.754;2024-02-14T11:07:22;11.30;99.90
24772;DHT22;12870;52.274;9.754;2024-02-14T11:10:08;11.40;99.90
24772;DHT22;12870;52.274;9.754;2024-02-14T11:12:35;11.40;99.90
24772;DHT22;12870;52.274;9.754;2024-02-14T11:18:04;11.50;99.90
24772;DHT22;12870;52.274;9.754;2024-02-14T11:20:37;11.50;99.90
24772;DHT22;12870;52.274;9.754;2024-02-14T11:23:04;11.50;99.90
24772;DHT22;12870;52.274;9.754;2024-02-14T11:25:32;11.40;99.90
24772;DHT22;12870;52.274;9.754;2024-02-14T11:28:00;11.40;99.90
24772;DHT22;12870;52.274;9.754;2024-02-14T11:30:34;11.40;99.90
24772;DHT22;12870;52.274;9.754;2024-02-14T11:33:13;11.40;99.90
24772;DHT22;12870;52.274;9.754;2024-02-14T11:35:42;11.40;99.90
24772;DHT22;12870;52.274;9.754;2024-02-14T11:38:09;11.50;99.90
24772;DHT22;12870;52.274;9.754;2024-02-14T11:40:35;11.60;99.90
24772;DHT22;12870;52.274;9.754;2024-02-14T11:43:01;11.60;99.90
24772;DHT22;12870;52.274;9.754;2024-02-14T11:45:30;11.70;99.90
24772;DHT22;12870;52.274;9.754;2024-02-14T11:47:56;11.60;99.90
24772;DHT22;12870;52.274;9.754;2024-02-14T11:50:21;11.80;99.90
24772;DHT22;12870;52.274;9.754;2024-02-14T11:52:47;11.70;99.90
24772;DHT22;12870;52.274;9.754;2024-02-14T11:55:12;11.80;99.90
24772;DHT22;12870;52.274;9.754;2024-02-14T11:57:41;11.90;99.90
24772;DHT22;12870;52.274;9.754;2024-02-14T12:00:08;11.80;99.90
24772;DHT22;12870;52.274;9.754;2024-02-14T12:02:34;11.90;99.90
24772;DHT22;12870;52.274;9.754;2024-02-14T12:05:01;11.70;99.90
24772;DHT22;12870;52.274;9.754;2024-02-14T12:07:30;11.60;99.90
24772;DHT22;12870;52.274;9.754;2024-02-14T12:09:56;11.50;99.90
24772;DHT22;12870;52.274;9.754;2024-02-14T12:12:22;11.50;99.90
24772;DHT22;12870;52.274;9.754;2024-02-14T12:14:54;11.50;99.90
24772;DHT22;12870;52.274;9.754;2024-02-14T12:17:19;11.50;99.90
24772;DHT22;12870;52.274;9.754;2024-02-14T12:19:47;11.50;99.90
24772;DHT22;12870;52.274;9.754;2024-02-14T12:22:15;11.50;99.90
24772;DHT22;12870;52.274;9.754;2024-02-14T12:24:44;11.60;99.90
24772;DHT22;12870;52.274;9.754;2024-02-14T12:27:12;11.60;99.90
24772;DHT22;12870;52.274;9.754;2024-02-14T12:29:40;11.70;99.90
24772;DHT22;12870;52.274;9.754;2024-02-14T12:32:06;11.60;99.90
24772;DHT22;12870;52.274;9.754;2024-02-14T12:34:32;11.60;99.90
24772;DHT22;12870;52.274;9.754;2024-02-14T12:36:58;11.60;99.90
24772;DHT22;12870;52.274;9.754;2024-02-14T12:39:29;11.70;99.90
24772;DHT22;12870;52.274;9.754;2024-02-14T12:41:55;11.70;99.90
24772;DHT22;12870;52.274;9.754;2024-02-14T12:44:21;11.70;99.90
24772;DHT22;12870;52.274;9.754;2024-02-14T12:46:46;11.70;99.90
24772;DHT22;12870;52.274;9.754;2024-02-14T12:49:12;11.80;99.90
24772;DHT22;12870;52.274;9.754;2024-02-14T12:51:39;11.70;99.90
24772;DHT22;12870;52.274;9.754;2024-02-14T12:54:05;11.80;99.90
24772;DHT22;12870;52.274;9.754;2024-02-14T12:56:33;11.90;99.90
24772;DHT22;12870;52.274;9.754;2024-02-14T12:58:58;11.80;99.90
24772;DHT22;12870;52.274;9.754;2024-02-14T13:01:25;11.90;99.90
24772;DHT22;12870;52.274;9.754;2024-02-14T13:03:51;11.90;99.90
24772;DHT22;12870;52.274;9.754;2024-02-14T13:06:17;12.00;99.90
24772;DHT22;12870;52.274;9.754;2024-02-14T13:08:42;12.00;99.90
24772;DHT22;12870;52.274;9.754;2024-02-14T13:11:08;12.00;99.90
24772;DHT22;12870;52.274;9.754;2024-02-14T13:13:34;12.00;99.90
24772;DHT22;12870;52.274;9.754;2024-02-14T13:16:00;12.10;99.90
24772;DHT22;12870;52.274;9.754;2024-02-14T13:18:26;12.10;99.90
24772;DHT22;12870;52.274;9.754;2024-02-14T13:20:52;12.00;99.90
24772;DHT22;12870;52.274;9.754;2024-02-14T13:23:27;11.90;99.90
24772;DHT22;12870;52.274;9.754;2024-02-14T13:25:53;11.90;99.90
24772;DHT22;12870;52.274;9.754;2024-02-14T13:28:19;11.90;99.90
24772;DHT22;12870;52.274;9.754;2024-02-14T13:30:45;11.90;99.90
24772;DHT22;12870;52.274;9.754;2024-02-14T13:33:13;11.90;99.90
24772;DHT22;12870;52.274;9.754;2024-02-14T13:35:39;11.80;99.90
24772;DHT22;12870;52.274;9.754;2024-02-14T13:38:08;11.80;99.90
24772;DHT22;12870;52.274;9.754;2024-02-14T13:40:35;11.90;99.90
24772;DHT22;12870;52.274;9.754;2024-02-14T13:43:01;11.90;99.90
24772;DHT22;12870;52.274;9.754;2024-02-14T13:45:27;11.90;99.90
24772;DHT22;12870;52.274;9.754;2024-02-14T13:48:03;11.90;99.90
24772;DHT22;12870;52.274;9.754;2024-02-14T13:50:33;11.90;99.90
24772;DHT22;12870;52.274;9.754;2024-02-14T13:52:58;11.80;99.90
24772;DHT22;12870;52.274;9.754;2024-02-14T13:55:24;11.80;99.90
24772;DHT22;12870;52.274;9.754;2024-02-14T13:57:50;11.70;99.90
24772;DHT22;12870;52.274;9.754;2024-02-14T14:00:16;11.60;99.90
24772;DHT22;12870;52.274;9.754;2024-02-14T14:02:42;11.50;99.90
24772;DHT22;12870;52.274;9.754;2024-02-14T14:05:09;11.40;99.90
24772;DHT22;12870;52.274;9.754;2024-02-14T14:07:36;11.40;99.90
24772;DHT22;12870;52.274;9.754;2024-02-14T14:10:05;11.50;99.90
24772;DHT22;12870;52.274;9.754;2024-02-14T14:12:31;11.40;99.90
24772;DHT22;12870;52.274;9.754;2024-02-14T14:14:57;11.40;99.90
24772;DHT22;12870;52.274;9.754;2024-02-14T14:17:23;11.30;99.90
24772;DHT22;12870;52.274;9.754;2024-02-14T14:19:48;11.30;99.90
24772;DHT22;12870;52.274;9.754;2024-02-14T14:22:14;11.30;99.90
24772;DHT22;12870;52.274;9.754;2024-02-14T14:24:41;11.30;99.90
24772;DHT22;12870;52.274;9.754;2024-02-14T14:27:06;11.30;99.90
24772;DHT22;12870;52.274;9.754;2024-02-14T14:29:34;11.30;99.90
24772;DHT22;12870;52.274;9.754;2024-02-14T14:32:00;11.30;99.90
24772;DHT22;12870;52.274;9.754;2024-02-14T14:34:26;11.30;99.90
24772;DHT22;12870;52.274;9.754;2024-02-14T14:36:52;11.20;99.90
24772;DHT22;12870;52.274;9.754;2024-02-14T14:39:20;11.20;99.90
24772;DHT22;12870;52.274;9.754;2024-02-14T14:41:45;11.20;99.90
24772;DHT22;12870;52.274;9.754;2024-02-14T14:44:11;11.30;99.90
24772;DHT22;12870;52.274;9.754;2024-02-14T14:46:37;11.20;99.90
24772;DHT22;12870;52.274;9.754;2024-02-14T14:49:08;11.20;99.90
24772;DHT22;12870;52.274;9.754;2024-02-14T14:51:35;11.20;99.90
24772;DHT22;12870;52.274;9.754;2024-02-14T14:54:01;11.10;99.90
24772;DHT22;12870;52.274;9.754;2024-02-14T14:56:26;11.10;99.90
24772;DHT22;12870;52.274;9.754;2024-02-14T14:58:53;11.10;99.90
24772;DHT22;12870;52.274;9.754;2024-02-14T15:01:18;11.10;99.90
24772;DHT22;12870;52.274;9.754;2024-02-14T15:03:44;11.00;99.90
24772;DHT22;12870;52.274;9.754;2024-02-14T15:06:10;11.10;99.90
24772;DHT22;12870;52.274;9.754;2024-02-14T15:08:36;11.00;99.90
24772;DHT22;12870;52.274;9.754;2024-02-14T15:11:02;11.10;99.90
24772;DHT22;12870;52.274;9.754;2024-02-14T15:13:28;11.10;99.90
24772;DHT22;12870;52.274;9.754;2024-02-14T15:15:53;11.10;99.90
24772;DHT22;12870;52.274;9.754;2024-02-14T15:18:19;11.10;99.90
24772;DHT22;12870;52.274;9.754;2024-02-14T15:20:44;11.20;99.90
24772;DHT22;12870;52.274;9.754;2024-02-14T15:23:10;11.20;99.90
24772;DHT22;12870;52.274;9.754;2024-02-14T15:25:36;11.20;99.90
24772;DHT22;12870;52.274;9.754;2024-02-14T15:28:10;11.20;99.90
24772;DHT22;12870;52.274;9.754;2024-02-14T15:30:47;11.20;99.90
24772;DHT22;12870;52.274;9.754;2024-02-14T15:33:31;11.20;99.90
24772;DHT22;12870;52.274;9.754;2024-02-14T15:35:57;11.30;99.90
24772;DHT22;12870;52.274;9.754;2024-02-14T15:38:24;11.30;99.90